Terminal Aerodrome Forecast
Issued by NWS

Home | Current Version | Previous Version | Text Only | Print | Product List | Glossary On
Versions: 1 2 3 4 5 6 7 8 9 10 11 12 13 14 15 16 17 18 19 20 21 22 23
666
FTAK31 PAJN 251442 AAA
TAFAYA
TAF AMD
PAYA 251442Z 2515/2612 13010KT 3SM -RA BR SCT005 OVC015
      TEMPO 2515/2517 2SM RA BR SCT003 OVC005
     FM251800 13005KT 6SM -RA SCT015 OVC025
     FM252200 21006KT P6SM VCSH SCT015 OVC030
     FM260600 VRB03KT P6SM SCT030 BKN060
      AMD LTD TO CLD VIS AND WIND=

USA.gov is the U.S. government's official web portal to all federal, state and local government web resources and services.